Terminal Aerodrome Forecast
Issued by NWS

Home | Current Version | Previous Version | Text Only | Print | Product List | Glossary Off
Versions: 1 2 3 4 5 6 7 8 9 10 11 12 13 14 15 16 17 18 19 20

000
FTUS41 KCLE 310500
TAFFDY
TAF
KFDY 310540Z 3106/0106 25003KT P6SM SCT050 BKN080
     FM311600 25008KT P6SM SCT045
     FM010000 VRB03KT P6SM SCT045=

USA.gov is the U.S. government's official web portal to all federal, state and local government web resources and services.